• Join FlightAware (Why Join?)
  • Login
  • US Flag 
04:40AM EDT


 

Airport Tracker/Info


-or-


 

Live Flight TrackerFlight Track Log ✈ PDT4236 ✈ 20-May-2013 ✈ KCLT - KHTS

Flight Track Log - Related Links

Times and Time Zones

All times are in EDT time to prevent confusion due to time zone crossing. See the PDT4236 flight status page for this flight to view local times or setup timezone preferences in your user account.

Time Position Orientation Groundspeed Altitude Reporting Facility
EDT Latitude Longitude Course Direction KTS MPH feet Rate Location/Type
02:39PM 35.1972 -80.9431 340° North 134 154 1,500  Level Atlanta Center
02:41PM 35.1861 -80.9969 256° West 167 192 2,700 1,320 Climbing Atlanta Center
02:42PM 35.3733 -81.0200 338° Northwest  Level FlightAware Approximate
02:42PM 35.1919 -81.0653 276° West 168 193 4,600  Level Atlanta Center
02:43PM 35.4436 -81.0458 347° North  Level FlightAware Approximate
02:43PM 35.1956 -81.1286 274° West 203 234 4,900  Level Atlanta Center
02:44PM 35.5154 -81.0663 347° North  Level FlightAware Approximate
02:44PM 35.2267 -81.2064 296° West 230 265 6,800  Level Atlanta Center
02:45PM 35.5811 -81.1046 340° North  Level FlightAware Approximate
02:45PM 35.2767 -81.2122 355° North 175 201 8,100  Level Atlanta Center
02:46PM 35.3250 -81.2183 354° North 170 196 9,500 1,260 Climbing Atlanta Center
02:47PM 35.3722 -81.1911 25° Northeast 176 203 10,700 1,200 Climbing Atlanta Center
02:48PM 35.4197 -81.1642 25° Northeast 188 216 12,000 1,200 Climbing Atlanta Center
02:49PM 35.4650 -81.1394 24° Northeast 188 216 13,100 960 Climbing Atlanta Center
02:50PM 35.5167 -81.1172 19° North 188 216 14,000 900 Climbing Atlanta Center
02:51PM 35.5631 -81.1386 339° North 177 204 15,000 960 Climbing Atlanta Center
02:52PM 35.6158 -81.1622 340° North 194 223 16,000 900 Climbing Atlanta Center
02:53PM 35.6683 -81.1886 338° Northwest 200 230 16,900 840 Climbing Atlanta Center
02:54PM 35.7192 -81.2150 337° Northwest 193 222 17,700 780 Climbing Atlanta Center
02:55PM 35.7719 -81.2414 338° Northwest 193 222 18,500 780 Climbing Atlanta Center
02:56PM 35.8247 -81.2675 338° Northwest 198 228 19,300 720 Climbing Atlanta Center
02:57PM 35.8817 -81.2939 339° North 198 228 20,000 300 Climbing Atlanta Center
02:58PM 35.9386 -81.3228 338° Northwest 208 239 20,000  Level Atlanta Center
02:59PM 35.9997 -81.3542 337° Northwest 219 252 20,000  Level Atlanta Center
03:00PM 36.0650 -81.3853 339° North 233 268 20,000  Level Atlanta Center
03:01PM 36.1283 -81.4167 338° Northwest 246 283 20,000  Level Atlanta Center
03:02PM 36.1936 -81.4481 339° North 246 283 20,000  Level Atlanta Center
03:03PM 36.2611 -81.4844 337° Northwest 255 293 20,000  Level Atlanta Center
03:04PM 36.3264 -81.5158 339° North 255 293 20,000  Level Atlanta Center
03:05PM 36.3939 -81.5497 338° Northwest 255 293 20,000  Level Atlanta Center
03:06PM 36.4633 -81.5811 340° North 255 293 20,000  Level Atlanta Center
03:07PM 36.5286 -81.6153 337° Northwest 255 293 20,000  Level Atlanta Center
03:08PM 36.5981 -81.6494 338° Northwest 255 293 20,000  Level Atlanta Center
03:09PM 36.6656 -81.6864 336° Northwest 255 293 20,000  Level Atlanta Center
03:10PM 36.7350 -81.7178 340° North 255 293 20,000  Level Atlanta Center
03:11PM 36.8044 -81.7522 338° Northwest 255 293 20,000  Level Atlanta Center
03:12PM 36.8697 -81.7892 336° Northwest 255 293 20,000  Level Atlanta Center
03:13PM 36.9506 -81.8272 339° North 263 303 20,000  Level Indianapolis Center
03:14PM 37.0197 -81.8633 337° Northwest 268 308 20,000  Level Indianapolis Center
03:15PM 37.0897 -81.8981 338° Northwest 270 311 20,000 -420 Level Indianapolis Center
03:17PM 37.1603 -81.9336 338° Northwest 273 314 19,200 -900 Descending Indianapolis Center
03:18PM 37.2356 -81.9719 338° Northwest 290 334 18,200 -900 Descending Indianapolis Center
03:19PM 37.3117 -82.0125 337° Northwest 295 339 17,400 -1,020 Descending Indianapolis Center
03:20PM 37.3981 -82.0550 339° North 288 331 16,200 -1,080 Descending Indianapolis Center
03:21PM 37.4703 -82.0928 337° Northwest 283 326 15,200 -1,020 Descending Indianapolis Center
03:22PM 37.5406 -82.1286 338° Northwest 273 314 14,200 -1,020 Descending Indianapolis Center
03:23PM 37.6103 -82.1661 337° Northwest 272 313 13,200 -1,020 Descending Indianapolis Center
03:24PM 37.6786 -82.1997 339° North 265 305 12,100 -1,080 Descending Indianapolis Center
03:25PM 37.7606 -82.2433 337° Northwest 270 311 11,000 -780 Descending Indianapolis Center
03:26PM 37.8267 -82.2783 337° Northwest 258 297 10,600 -600 Descending Indianapolis Center
03:27PM 37.8914 -82.3117 338° Northwest 253 291 9,800 -1,320 Descending Indianapolis Center
03:28PM 37.9517 -82.3597 328° Northwest 262 302 7,900 -1,920 Descending Indianapolis Center
03:29PM 37.9958 -82.4319 308° West 260 299 5,900 -1,440 Descending Indianapolis Center
03:30PM 38.0550 -82.5056 316° Northwest 256 295 5,000 -480 Descending Indianapolis Center
03:31PM 38.1100 -82.5442 331° Northwest 235 270 5,000 -780 Level Indianapolis Center
03:32PM 38.1625 -82.5911 325° Northwest 229 264 3,500 -1,020 Descending Indianapolis Center
03:33PM 38.2186 -82.6319 330° Northwest 232 267 2,900 -480 Descending Indianapolis Center
03:34PM 38.2808 -82.6300 North 230 265 2,600 -420 Descending Indianapolis Center
03:35PM 38.3356 -82.6108 15° North 186 214 2,100 -540 Descending Indianapolis Center